Time;durP1;ratioP1;P1;durP2;ratioP2;P2;SDS_P1;SDS_P2;PMS_P1;PMS_P2;Temp;Humidity;BMP_temperature;BMP_pressure;BME280_temperature;BME280_humidity;BME280_pressure;Samples;Min_cycle;Max_cycle;Signal;HPM_P1;HPM_P2
2024/03/13 00:01:22;;;;;;;2.7;2.1;;;;;;;;;;;;;
2024/03/13 00:03:47;;;;;;;2.4;2.2;;;;;;;;;;;;;
2024/03/13 00:06:12;;;;;;;3.2;2.3;;;;;;;;;;;;;
2024/03/13 00:08:37;;;;;;;2.8;2.3;;;;;;;;;;;;;
2024/03/13 00:11:03;;;;;;;2.7;2.2;;;;;;;;;;;;;
2024/03/13 00:13:29;;;;;;;3;2.4;;;;;;;;;;;;;
2024/03/13 00:15:53;;;;;;;2.4;1.9;;;;;;;;;;;;;
2024/03/13 00:18:20;;;;;;;1.4;1.3;;;;;;;;;;;;;
2024/03/13 00:20:43;;;;;;;2.7;1.8;;;;;;;;;;;;;
2024/03/13 00:23:09;;;;;;;2.1;1.5;;;;;;;;;;;;;
2024/03/13 00:25:34;;;;;;;2.6;1.5;;;;;;;;;;;;;
2024/03/13 00:27:58;;;;;;;1.3;1.2;;;;;;;;;;;;;
2024/03/13 00:30:23;;;;;;;2;1.5;;;;;;;;;;;;;
2024/03/13 00:32:53;;;;;;;1.6;1.5;;;;;;;;;;;;;
2024/03/13 00:35:14;;;;;;;1.6;1.5;;;;;;;;;;;;;
2024/03/13 00:37:39;;;;;;;2.2;1.6;;;;;;;;;;;;;
2024/03/13 00:40:04;;;;;;;2.4;1.6;;;;;;;;;;;;;
2024/03/13 00:42:29;;;;;;;2.3;1.7;;;;;;;;;;;;;
2024/03/13 00:44:54;;;;;;;2.1;1.5;;;;;;;;;;;;;
2024/03/13 00:47:19;;;;;;;1.5;1.4;;;;;;;;;;;;;
2024/03/13 00:49:44;;;;;;;1.4;1.3;;;;;;;;;;;;;
2024/03/13 00:52:09;;;;;;;1.5;1.4;;;;;;;;;;;;;
2024/03/13 00:54:35;;;;;;;1.4;1.3;;;;;;;;;;;;;
2024/03/13 00:57:01;;;;;;;1.9;1.5;;;;;;;;;;;;;
2024/03/13 00:59:26;;;;;;;1.5;1.4;;;;;;;;;;;;;
2024/03/13 01:01:50;;;;;;;1.9;1.6;;;;;;;;;;;;;
2024/03/13 01:04:15;;;;;;;1.9;1.4;;;;;;;;;;;;;
2024/03/13 01:06:40;;;;;;;1.6;1.5;;;;;;;;;;;;;
2024/03/13 01:09:06;;;;;;;2.2;1.6;;;;;;;;;;;;;
2024/03/13 01:11:31;;;;;;;2.7;2;;;;;;;;;;;;;
2024/03/13 01:13:56;;;;;;;1.9;1.5;;;;;;;;;;;;;
2024/03/13 01:16:22;;;;;;;2.4;1.9;;;;;;;;;;;;;
2024/03/13 01:18:46;;;;;;;1.8;1.6;;;;;;;;;;;;;
2024/03/13 01:21:11;;;;;;;2.3;1.6;;;;;;;;;;;;;
2024/03/13 01:23:37;;;;;;;1.8;1.6;;;;;;;;;;;;;
2024/03/13 01:26:04;;;;;;;1.9;1.7;;;;;;;;;;;;;
2024/03/13 01:28:27;;;;;;;1.9;1.5;;;;;;;;;;;;;
2024/03/13 01:30:52;;;;;;;2;1.6;;;;;;;;;;;;;
2024/03/13 01:33:17;;;;;;;2.6;1.7;;;;;;;;;;;;;
2024/03/13 01:35:42;;;;;;;2.2;2;;;;;;;;;;;;;
2024/03/13 01:38:07;;;;;;;2.8;2.1;;;;;;;;;;;;;
2024/03/13 01:55:10;;;;;;;2.3;2.1;;;;;;;;;;;;;
2024/03/13 01:57:32;;;;;;;2.1;1.9;;;;;;;;;;;;;
2024/03/13 02:02:22;;;;;;;2.3;1.9;;;;;;;;;;;;;
2024/03/13 02:02:24;;;;;;;2.6;1.8;;;;;;;;;;;;;
2024/03/13 02:04:43;;;;;;;2;1.6;;;;;;;;;;;;;
2024/03/13 02:07:09;;;;;;;2.9;1.9;;;;;;;;;;;;;
2024/03/13 02:09:34;;;;;;;2;1.8;;;;;;;;;;;;;
2024/03/13 02:11:59;;;;;;;2.3;1.8;;;;;;;;;;;;;
2024/03/13 02:14:24;;;;;;;2.2;1.8;;;;;;;;;;;;;
2024/03/13 02:16:49;;;;;;;1.8;1.7;;;;;;;;;;;;;
2024/03/13 02:19:14;;;;;;;2.6;1.9;;;;;;;;;;;;;
2024/03/13 02:21:39;;;;;;;2;1.6;;;;;;;;;;;;;
2024/03/13 02:24:05;;;;;;;1.9;1.7;;;;;;;;;;;;;
2024/03/13 02:26:29;;;;;;;2;1.6;;;;;;;;;;;;;
2024/03/13 02:28:55;;;;;;;2.6;1.6;;;;;;;;;;;;;
2024/03/13 02:31:20;;;;;;;2.4;1.6;;;;;;;;;;;;;
2024/03/13 02:33:45;;;;;;;2.4;1.8;;;;;;;;;;;;;
2024/03/13 02:36:10;;;;;;;1.9;1.5;;;;;;;;;;;;;
2024/03/13 02:38:35;;;;;;;2.2;1.6;;;;;;;;;;;;;
2024/03/13 02:41:00;;;;;;;2;1.6;;;;;;;;;;;;;
2024/03/13 02:43:25;;;;;;;3.1;1.8;;;;;;;;;;;;;
2024/03/13 02:45:50;;;;;;;2.5;1.8;;;;;;;;;;;;;
2024/03/13 02:48:16;;;;;;;2.2;1.8;;;;;;;;;;;;;
2024/03/13 02:50:42;;;;;;;3.1;1.8;;;;;;;;;;;;;
2024/03/13 02:53:07;;;;;;;2;1.6;;;;;;;;;;;;;
2024/03/13 02:55:31;;;;;;;2.6;1.8;;;;;;;;;;;;;
2024/03/13 02:57:56;;;;;;;2.3;1.8;;;;;;;;;;;;;
2024/03/13 03:00:21;;;;;;;1.7;1.6;;;;;;;;;;;;;
2024/03/13 03:02:46;;;;;;;3;1.7;;;;;;;;;;;;;
2024/03/13 03:05:11;;;;;;;1.6;1.4;;;;;;;;;;;;;
2024/03/13 03:07:36;;;;;;;2;1.6;;;;;;;;;;;;;
2024/03/13 03:10:02;;;;;;;2.7;1.9;;;;;;;;;;;;;
2024/03/13 03:12:26;;;;;;;3.2;2.1;;;;;;;;;;;;;
2024/03/13 03:14:54;;;;;;;2;1.7;;;;;;;;;;;;;
2024/03/13 03:17:18;;;;;;;2.1;1.7;;;;;;;;;;;;;
2024/03/13 03:19:42;;;;;;;2.2;1.8;;;;;;;;;;;;;
2024/03/13 03:22:08;;;;;;;3.3;1.7;;;;;;;;;;;;;
2024/03/13 03:24:32;;;;;;;3.5;1.8;;;;;;;;;;;;;
2024/03/13 03:26:57;;;;;;;2.6;1.9;;;;;;;;;;;;;
2024/03/13 03:29:22;;;;;;;2.7;2;;;;;;;;;;;;;
2024/03/13 03:31:47;;;;;;;2.6;2;;;;;;;;;;;;;
2024/03/13 03:34:12;;;;;;;2.3;1.9;;;;;;;;;;;;;
2024/03/13 03:36:40;;;;;;;3.4;1.9;;;;;;;;;;;;;
2024/03/13 03:39:05;;;;;;;2.1;1.8;;;;;;;;;;;;;
2024/03/13 03:41:28;;;;;;;2.4;1.8;;;;;;;;;;;;;
2024/03/13 03:43:52;;;;;;;2.8;2;;;;;;;;;;;;;
2024/03/13 03:46:18;;;;;;;2.1;1.9;;;;;;;;;;;;;
2024/03/13 03:48:43;;;;;;;2.3;1.9;;;;;;;;;;;;;
2024/03/13 03:51:08;;;;;;;2.9;2.1;;;;;;;;;;;;;
2024/03/13 03:53:33;;;;;;;2.3;1.8;;;;;;;;;;;;;
2024/03/13 03:55:58;;;;;;;3.8;2;;;;;;;;;;;;;
2024/03/13 03:58:23;;;;;;;2.3;2;;;;;;;;;;;;;
2024/03/13 04:02:29;;;;;;;2.1;1.9;;;;;;;;;;;;;
2024/03/13 04:04:54;;;;;;;4.1;2;;;;;;;;;;;;;
2024/03/13 04:07:20;;;;;;;2.1;1.7;;;;;;;;;;;;;
2024/03/13 04:09:44;;;;;;;2.6;1.6;;;;;;;;;;;;;
2024/03/13 04:12:09;;;;;;;2.4;1.7;;;;;;;;;;;;;
2024/03/13 04:14:35;;;;;;;1.8;1.7;;;;;;;;;;;;;
2024/03/13 04:16:59;;;;;;;2.1;1.6;;;;;;;;;;;;;
2024/03/13 04:19:25;;;;;;;3.8;1.9;;;;;;;;;;;;;
2024/03/13 04:21:50;;;;;;;2.2;1.7;;;;;;;;;;;;;
2024/03/13 04:24:15;;;;;;;2.2;1.7;;;;;;;;;;;;;
2024/03/13 04:26:41;;;;;;;3.5;1.6;;;;;;;;;;;;;
2024/03/13 04:29:05;;;;;;;2.7;1.9;;;;;;;;;;;;;
2024/03/13 04:31:32;;;;;;;1.8;1.7;;;;;;;;;;;;;
2024/03/13 04:34:01;;;;;;;3;1.9;;;;;;;;;;;;;
2024/03/13 04:38:03;;;;;;;2.5;1.5;;;;;;;;;;;;;
2024/03/13 04:40:28;;;;;;;2;1.4;;;;;;;;;;;;;
2024/03/13 04:42:53;;;;;;;1.8;1.2;;;;;;;;;;;;;
2024/03/13 04:45:18;;;;;;;2.4;1.3;;;;;;;;;;;;;
2024/03/13 04:47:43;;;;;;;1.4;1.1;;;;;;;;;;;;;
2024/03/13 04:50:08;;;;;;;1.4;1.2;;;;;;;;;;;;;
2024/03/13 04:52:33;;;;;;;1.4;1.1;;;;;;;;;;;;;
2024/03/13 04:54:59;;;;;;;1.7;1.2;;;;;;;;;;;;;
2024/03/13 04:57:23;;;;;;;1.7;1.4;;;;;;;;;;;;;
2024/03/13 04:59:48;;;;;;;2.1;1.3;;;;;;;;;;;;;
2024/03/13 05:02:14;;;;;;;1.5;1.3;;;;;;;;;;;;;
2024/03/13 05:04:39;;;;;;;1.7;1.5;;;;;;;;;;;;;
2024/03/13 05:07:08;;;;;;;1.9;1.5;;;;;;;;;;;;;
2024/03/13 05:09:29;;;;;;;2.9;1.8;;;;;;;;;;;;;
2024/03/13 05:11:54;;;;;;;1.5;1.4;;;;;;;;;;;;;
2024/03/13 05:14:19;;;;;;;3.3;1.6;;;;;;;;;;;;;
2024/03/13 05:16:45;;;;;;;1.7;1.3;;;;;;;;;;;;;
2024/03/13 05:19:09;;;;;;;1.3;1.2;;;;;;;;;;;;;
2024/03/13 05:21:34;;;;;;;1.5;1.1;;;;;;;;;;;;;
2024/03/13 05:24:00;;;;;;;2.2;1.3;;;;;;;;;;;;;
2024/03/13 05:26:27;;;;;;;2.4;1.3;;;;;;;;;;;;;
2024/03/13 05:28:50;;;;;;;1.3;1.2;;;;;;;;;;;;;
2024/03/13 05:31:15;;;;;;;2.1;1.3;;;;;;;;;;;;;
2024/03/13 05:33:40;;;;;;;1.5;1.1;;;;;;;;;;;;;
2024/03/13 05:36:07;;;;;;;1.4;1.3;;;;;;;;;;;;;
2024/03/13 05:38:30;;;;;;;1.7;1.3;;;;;;;;;;;;;
2024/03/13 05:40:55;;;;;;;1.3;1.2;;;;;;;;;;;;;
2024/03/13 05:43:21;;;;;;;1.7;1.2;;;;;;;;;;;;;
2024/03/13 05:45:45;;;;;;;1.7;1.6;;;;;;;;;;;;;
2024/03/13 05:48:13;;;;;;;3.1;2.3;;;;;;;;;;;;;
2024/03/13 05:50:39;;;;;;;1.9;1.4;;;;;;;;;;;;;
2024/03/13 05:53:04;;;;;;;1.6;1.5;;;;;;;;;;;;;
2024/03/13 05:55:31;;;;;;;2;1.6;;;;;;;;;;;;;
2024/03/13 05:57:54;;;;;;;2.4;1.5;;;;;;;;;;;;;
2024/03/13 06:00:19;;;;;;;1.9;1.4;;;;;;;;;;;;;
2024/03/13 06:02:44;;;;;;;2.3;1.8;;;;;;;;;;;;;
2024/03/13 06:05:14;;;;;;;2.9;1.8;;;;;;;;;;;;;
2024/03/13 06:07:35;;;;;;;2.2;1.7;;;;;;;;;;;;;
2024/03/13 06:10:01;;;;;;;2.6;1.9;;;;;;;;;;;;;
2024/03/13 06:12:25;;;;;;;2.2;1.7;;;;;;;;;;;;;
2024/03/13 06:14:50;;;;;;;1.8;1.7;;;;;;;;;;;;;
2024/03/13 06:17:15;;;;;;;1.8;1.5;;;;;;;;;;;;;
2024/03/13 06:19:40;;;;;;;2.8;1.5;;;;;;;;;;;;;
2024/03/13 06:22:07;;;;;;;2.1;1.6;;;;;;;;;;;;;
2024/03/13 06:24:32;;;;;;;1.1;1;;;;;;;;;;;;;
2024/03/13 06:26:58;;;;;;;1.7;1.1;;;;;;;;;;;;;
2024/03/13 06:31:46;;;;;;;1.4;1.2;;;;;;;;;;;;;
2024/03/13 06:34:11;;;;;;;3.2;2.2;;;;;;;;;;;;;
2024/03/13 06:36:36;;;;;;;5.6;3.4;;;;;;;;;;;;;
2024/03/13 06:39:01;;;;;;;3.2;1.9;;;;;;;;;;;;;
2024/03/13 06:41:27;;;;;;;1.8;1.5;;;;;;;;;;;;;
2024/03/13 06:43:51;;;;;;;1.8;1.4;;;;;;;;;;;;;
2024/03/13 06:46:17;;;;;;;2.5;1.6;;;;;;;;;;;;;
2024/03/13 06:48:42;;;;;;;3.7;2.1;;;;;;;;;;;;;
2024/03/13 06:51:08;;;;;;;1.8;1.6;;;;;;;;;;;;;
2024/03/13 06:53:32;;;;;;;1.9;1.7;;;;;;;;;;;;;
2024/03/13 06:55:57;;;;;;;2;1.6;;;;;;;;;;;;;
2024/03/13 06:58:23;;;;;;;2.6;2.1;;;;;;;;;;;;;
2024/03/13 07:00:47;;;;;;;1.5;1.4;;;;;;;;;;;;;
2024/03/13 07:03:13;;;;;;;1.5;1.4;;;;;;;;;;;;;
2024/03/13 07:05:38;;;;;;;2.6;2;;;;;;;;;;;;;
2024/03/13 07:08:05;;;;;;;1.7;1.5;;;;;;;;;;;;;
2024/03/13 07:10:28;;;;;;;1.5;1.3;;;;;;;;;;;;;
2024/03/13 07:12:55;;;;;;;3.6;3.1;;;;;;;;;;;;;
2024/03/13 07:15:18;;;;;;;13.1;7.2;;;;;;;;;;;;;
2024/03/13 07:17:45;;;;;;;8.6;5.6;;;;;;;;;;;;;
2024/03/13 07:20:09;;;;;;;5;4;;;;;;;;;;;;;
2024/03/13 07:22:34;;;;;;;16.3;7.9;;;;;;;;;;;;;
2024/03/13 07:24:59;;;;;;;15.8;8.5;;;;;;;;;;;;;
2024/03/13 07:27:24;;;;;;;6.8;4.2;;;;;;;;;;;;;
2024/03/13 07:29:49;;;;;;;1.7;1.3;;;;;;;;;;;;;
2024/03/13 07:32:16;;;;;;;1.4;1.3;;;;;;;;;;;;;
2024/03/13 07:34:40;;;;;;;2;1.3;;;;;;;;;;;;;
2024/03/13 07:37:05;;;;;;;1.9;1.5;;;;;;;;;;;;;
2024/03/13 07:39:30;;;;;;;2.1;1.7;;;;;;;;;;;;;
2024/03/13 07:41:54;;;;;;;3.7;1.7;;;;;;;;;;;;;
2024/03/13 07:44:20;;;;;;;2.6;1.6;;;;;;;;;;;;;
2024/03/13 07:46:45;;;;;;;3.7;2.5;;;;;;;;;;;;;
2024/03/13 07:49:10;;;;;;;5.8;4;;;;;;;;;;;;;
2024/03/13 07:51:35;;;;;;;11.8;6.1;;;;;;;;;;;;;
2024/03/13 07:54:01;;;;;;;6;3.4;;;;;;;;;;;;;
2024/03/13 07:56:25;;;;;;;4.8;2.9;;;;;;;;;;;;;
2024/03/13 07:58:51;;;;;;;4;2.3;;;;;;;;;;;;;
2024/03/13 08:01:16;;;;;;;3.4;1.8;;;;;;;;;;;;;
2024/03/13 08:03:41;;;;;;;5.1;3.2;;;;;;;;;;;;;
2024/03/13 08:06:07;;;;;;;2;1.7;;;;;;;;;;;;;
2024/03/13 08:08:31;;;;;;;2.5;2;;;;;;;;;;;;;
2024/03/13 08:10:56;;;;;;;2.1;1.4;;;;;;;;;;;;;
2024/03/13 08:13:21;;;;;;;2;1.5;;;;;;;;;;;;;
2024/03/13 08:15:47;;;;;;;2.4;1.7;;;;;;;;;;;;;
2024/03/13 08:18:15;;;;;;;6;4.6;;;;;;;;;;;;;
2024/03/13 08:20:37;;;;;;;4.2;3.3;;;;;;;;;;;;;
2024/03/13 08:23:04;;;;;;;4.3;3.4;;;;;;;;;;;;;
2024/03/13 08:25:27;;;;;;;3.2;2.6;;;;;;;;;;;;;
2024/03/13 08:27:52;;;;;;;1.5;1.3;;;;;;;;;;;;;
2024/03/13 08:30:18;;;;;;;1.9;1.6;;;;;;;;;;;;;
2024/03/13 08:32:43;;;;;;;0.9;0.8;;;;;;;;;;;;;
2024/03/13 08:35:09;;;;;;;0.8;0.7;;;;;;;;;;;;;
2024/03/13 08:37:33;;;;;;;0.8;0.7;;;;;;;;;;;;;
2024/03/13 08:40:00;;;;;;;2.3;0.8;;;;;;;;;;;;;
2024/03/13 08:42:24;;;;;;;1.9;1.8;;;;;;;;;;;;;
2024/03/13 08:44:49;;;;;;;2.3;1.9;;;;;;;;;;;;;
2024/03/13 08:47:14;;;;;;;1.9;1.7;;;;;;;;;;;;;
2024/03/13 08:49:39;;;;;;;1.7;1.6;;;;;;;;;;;;;
2024/03/13 08:52:04;;;;;;;2.2;2;;;;;;;;;;;;;
2024/03/13 08:54:29;;;;;;;0.4;0.4;;;;;;;;;;;;;
2024/03/13 08:56:54;;;;;;;0.5;0.5;;;;;;;;;;;;;
2024/03/13 08:59:20;;;;;;;0.4;0.4;;;;;;;;;;;;;
2024/03/13 09:01:44;;;;;;;0.6;0.6;;;;;;;;;;;;;
2024/03/13 09:04:09;;;;;;;0.7;0.5;;;;;;;;;;;;;
2024/03/13 09:06:36;;;;;;;0.6;0.5;;;;;;;;;;;;;
2024/03/13 09:09:03;;;;;;;0.7;0.5;;;;;;;;;;;;;
2024/03/13 09:11:25;;;;;;;0.4;0.4;;;;;;;;;;;;;
2024/03/13 09:13:50;;;;;;;0.9;0.4;;;;;;;;;;;;;
2024/03/13 09:16:16;;;;;;;0.4;0.4;;;;;;;;;;;;;
2024/03/13 09:18:41;;;;;;;0.3;0.3;;;;;;;;;;;;;
2024/03/13 09:21:05;;;;;;;2.1;0.3;;;;;;;;;;;;;
2024/03/13 09:23:31;;;;;;;0.3;0.3;;;;;;;;;;;;;
2024/03/13 09:25:56;;;;;;;1.6;0.7;;;;;;;;;;;;;
2024/03/13 09:28:21;;;;;;;0.8;0.5;;;;;;;;;;;;;
2024/03/13 09:30:46;;;;;;;0.3;0.3;;;;;;;;;;;;;
2024/03/13 09:33:11;;;;;;;1.3;0.2;;;;;;;;;;;;;
2024/03/13 09:35:36;;;;;;;0.2;0.2;;;;;;;;;;;;;
2024/03/13 09:38:01;;;;;;;0.1;0.1;;;;;;;;;;;;;
2024/03/13 09:40:26;;;;;;;0.4;0.3;;;;;;;;;;;;;
2024/03/13 09:42:51;;;;;;;0.3;0.3;;;;;;;;;;;;;
2024/03/13 09:45:17;;;;;;;0.3;0.2;;;;;;;;;;;;;
2024/03/13 09:47:41;;;;;;;0.1;0.1;;;;;;;;;;;;;
2024/03/13 09:50:07;;;;;;;0.3;0.3;;;;;;;;;;;;;
2024/03/13 09:52:33;;;;;;;0.2;0.2;;;;;;;;;;;;;
2024/03/13 09:54:58;;;;;;;0.2;0.2;;;;;;;;;;;;;
2024/03/13 09:57:22;;;;;;;0.3;0.3;;;;;;;;;;;;;
2024/03/13 09:59:47;;;;;;;0.2;0.2;;;;;;;;;;;;;
2024/03/13 10:02:13;;;;;;;0.1;0.1;;;;;;;;;;;;;
2024/03/13 10:04:37;;;;;;;0.2;0.2;;;;;;;;;;;;;
2024/03/13 10:07:02;;;;;;;1.1;0.1;;;;;;;;;;;;;
2024/03/13 10:09:28;;;;;;;0.2;0.2;;;;;;;;;;;;;
2024/03/13 10:11:53;;;;;;;1.6;0.3;;;;;;;;;;;;;
2024/03/13 10:14:18;;;;;;;1.2;0.3;;;;;;;;;;;;;
2024/03/13 10:16:43;;;;;;;0.3;0.3;;;;;;;;;;;;;
2024/03/13 10:19:08;;;;;;;0.3;0.3;;;;;;;;;;;;;
2024/03/13 10:21:33;;;;;;;0.4;0.4;;;;;;;;;;;;;
2024/03/13 10:23:58;;;;;;;0.3;0.3;;;;;;;;;;;;;
2024/03/13 10:26:23;;;;;;;0.3;0.3;;;;;;;;;;;;;
2024/03/13 10:28:48;;;;;;;0.2;0.2;;;;;;;;;;;;;
2024/03/13 10:31:14;;;;;;;0.3;0.3;;;;;;;;;;;;;
2024/03/13 10:33:38;;;;;;;0.2;0.2;;;;;;;;;;;;;
2024/03/13 10:36:04;;;;;;;0.3;0.3;;;;;;;;;;;;;
2024/03/13 10:38:33;;;;;;;1;0.5;;;;;;;;;;;;;
2024/03/13 10:40:55;;;;;;;1.6;0.3;;;;;;;;;;;;;
2024/03/13 10:43:19;;;;;;;0.4;0.3;;;;;;;;;;;;;
2024/03/13 10:45:44;;;;;;;0.2;0.2;;;;;;;;;;;;;
2024/03/13 10:48:10;;;;;;;0.2;0.2;;;;;;;;;;;;;
2024/03/13 10:50:35;;;;;;;0.3;0.3;;;;;;;;;;;;;
2024/03/13 10:52:59;;;;;;;0.2;0.2;;;;;;;;;;;;;
2024/03/13 10:57:16;;;;;;;0.2;0.2;;;;;;;;;;;;;
2024/03/13 10:59:41;;;;;;;0.3;0.3;;;;;;;;;;;;;
2024/03/13 11:02:07;;;;;;;0.1;0.1;;;;;;;;;;;;;
2024/03/13 11:04:31;;;;;;;0.1;0.1;;;;;;;;;;;;;
2024/03/13 11:06:56;;;;;;;0.2;0.2;;;;;;;;;;;;;
2024/03/13 11:09:22;;;;;;;0.5;0.5;;;;;;;;;;;;;
2024/03/13 11:11:46;;;;;;;0.3;0.3;;;;;;;;;;;;;
2024/03/13 11:14:12;;;;;;;0.4;0.4;;;;;;;;;;;;;
2024/03/13 11:16:36;;;;;;;0.2;0.2;;;;;;;;;;;;;
2024/03/13 11:19:01;;;;;;;0.2;0.2;;;;;;;;;;;;;
2024/03/13 11:21:26;;;;;;;2.1;0.2;;;;;;;;;;;;;
2024/03/13 11:23:51;;;;;;;0.5;0.4;;;;;;;;;;;;;
2024/03/13 11:26:16;;;;;;;0.4;0.3;;;;;;;;;;;;;
2024/03/13 11:28:45;;;;;;;0.4;0.4;;;;;;;;;;;;;
2024/03/13 11:31:09;;;;;;;0.8;0.5;;;;;;;;;;;;;
2024/03/13 11:33:32;;;;;;;0.6;0.6;;;;;;;;;;;;;
2024/03/13 11:35:58;;;;;;;0.5;0.5;;;;;;;;;;;;;
2024/03/13 11:38:22;;;;;;;0.8;0.6;;;;;;;;;;;;;
2024/03/13 11:40:48;;;;;;;0.5;0.5;;;;;;;;;;;;;
2024/03/13 11:43:14;;;;;;;2.1;0.4;;;;;;;;;;;;;
2024/03/13 11:45:38;;;;;;;0.4;0.4;;;;;;;;;;;;;
2024/03/13 11:48:04;;;;;;;0.2;0.2;;;;;;;;;;;;;
2024/03/13 11:50:31;;;;;;;0.3;0.2;;;;;;;;;;;;;
2024/03/13 11:52:54;;;;;;;0.3;0.3;;;;;;;;;;;;;
2024/03/13 11:55:19;;;;;;;0.3;0.3;;;;;;;;;;;;;
2024/03/13 11:57:45;;;;;;;0.6;0.4;;;;;;;;;;;;;
2024/03/13 12:00:14;;;;;;;0.2;0.2;;;;;;;;;;;;;
2024/03/13 12:02:35;;;;;;;0.3;0.3;;;;;;;;;;;;;
2024/03/13 12:05:03;;;;;;;0.3;0.3;;;;;;;;;;;;;
2024/03/13 12:07:26;;;;;;;0.4;0.3;;;;;;;;;;;;;
2024/03/13 12:09:56;;;;;;;0.2;0.2;;;;;;;;;;;;;
2024/03/13 12:12:25;;;;;;;0.4;0.4;;;;;;;;;;;;;
2024/03/13 12:14:46;;;;;;;0.2;0.2;;;;;;;;;;;;;
2024/03/13 12:17:11;;;;;;;0.1;0.1;;;;;;;;;;;;;
2024/03/13 12:19:36;;;;;;;0.9;0.1;;;;;;;;;;;;;
2024/03/13 12:22:02;;;;;;;0.1;0.1;;;;;;;;;;;;;
2024/03/13 12:24:26;;;;;;;0.1;0.1;;;;;;;;;;;;;
2024/03/13 12:26:51;;;;;;;0.1;0.1;;;;;;;;;;;;;
2024/03/13 12:29:16;;;;;;;0.1;0.1;;;;;;;;;;;;;
2024/03/13 12:31:43;;;;;;;0.4;0.1;;;;;;;;;;;;;
2024/03/13 12:34:06;;;;;;;0.2;0.2;;;;;;;;;;;;;
2024/03/13 12:36:31;;;;;;;0.2;0.2;;;;;;;;;;;;;
2024/03/13 12:38:57;;;;;;;0.2;0.2;;;;;;;;;;;;;
2024/03/13 12:41:22;;;;;;;0.2;0.2;;;;;;;;;;;;;
2024/03/13 12:43:47;;;;;;;0.2;0.2;;;;;;;;;;;;;
2024/03/13 12:46:13;;;;;;;0.1;0.1;;;;;;;;;;;;;
2024/03/13 12:48:38;;;;;;;0.1;0.1;;;;;;;;;;;;;
2024/03/13 12:51:02;;;;;;;0.1;0.1;;;;;;;;;;;;;
2024/03/13 12:53:27;;;;;;;0.2;0.1;;;;;;;;;;;;;
2024/03/13 12:55:53;;;;;;;0.1;0.1;;;;;;;;;;;;;
2024/03/13 12:58:18;;;;;;;1.1;0.3;;;;;;;;;;;;;
2024/03/13 13:00:43;;;;;;;0.3;0.2;;;;;;;;;;;;;
2024/03/13 13:03:09;;;;;;;0.2;0.2;;;;;;;;;;;;;
2024/03/13 13:05:33;;;;;;;0.2;0.2;;;;;;;;;;;;;
2024/03/13 13:07:59;;;;;;;0.1;0.1;;;;;;;;;;;;;
2024/03/13 13:10:24;;;;;;;0.2;0.2;;;;;;;;;;;;;
2024/03/13 13:12:48;;;;;;;0.2;0.2;;;;;;;;;;;;;
2024/03/13 13:15:13;;;;;;;0.7;0.2;;;;;;;;;;;;;
2024/03/13 13:17:39;;;;;;;0.2;0.2;;;;;;;;;;;;;
2024/03/13 13:20:08;;;;;;;0.2;0.2;;;;;;;;;;;;;
2024/03/13 13:22:29;;;;;;;0.2;0.2;;;;;;;;;;;;;
2024/03/13 13:24:54;;;;;;;0.2;0.2;;;;;;;;;;;;;
2024/03/13 13:27:19;;;;;;;0.2;0.2;;;;;;;;;;;;;
2024/03/13 13:29:44;;;;;;;0.2;0.2;;;;;;;;;;;;;
2024/03/13 13:32:09;;;;;;;0.2;0.2;;;;;;;;;;;;;
2024/03/13 13:34:35;;;;;;;0.4;0.2;;;;;;;;;;;;;
2024/03/13 13:37:00;;;;;;;0.1;0.1;;;;;;;;;;;;;
2024/03/13 13:39:25;;;;;;;0.2;0.2;;;;;;;;;;;;;
2024/03/13 13:41:50;;;;;;;1.4;0.3;;;;;;;;;;;;;
2024/03/13 13:44:15;;;;;;;1.3;0.2;;;;;;;;;;;;;
2024/03/13 13:46:40;;;;;;;0.2;0.2;;;;;;;;;;;;;
2024/03/13 13:49:06;;;;;;;0.6;0.3;;;;;;;;;;;;;
2024/03/13 13:51:30;;;;;;;0.3;0.3;;;;;;;;;;;;;
2024/03/13 13:53:55;;;;;;;0.1;0.1;;;;;;;;;;;;;
2024/03/13 13:56:21;;;;;;;0.2;0.1;;;;;;;;;;;;;
2024/03/13 13:58:50;;;;;;;0.2;0.2;;;;;;;;;;;;;
2024/03/13 14:01:11;;;;;;;0.4;0.3;;;;;;;;;;;;;
2024/03/13 14:03:37;;;;;;;0.3;0.2;;;;;;;;;;;;;
2024/03/13 14:06:03;;;;;;;0.2;0.2;;;;;;;;;;;;;
2024/03/13 14:08:26;;;;;;;0.9;0.2;;;;;;;;;;;;;
2024/03/13 14:10:54;;;;;;;0.4;0.2;;;;;;;;;;;;;
2024/03/13 14:13:16;;;;;;;0.2;0.2;;;;;;;;;;;;;
2024/03/13 14:15:42;;;;;;;0.2;0.2;;;;;;;;;;;;;
2024/03/13 14:18:09;;;;;;;0.1;0.1;;;;;;;;;;;;;
2024/03/13 14:20:33;;;;;;;0.2;0.2;;;;;;;;;;;;;
2024/03/13 14:22:58;;;;;;;0.3;0.2;;;;;;;;;;;;;
2024/03/13 14:25:22;;;;;;;0.2;0.2;;;;;;;;;;;;;
2024/03/13 14:27:49;;;;;;;1.7;0.4;;;;;;;;;;;;;
2024/03/13 14:30:12;;;;;;;0.8;0.3;;;;;;;;;;;;;
2024/03/13 14:32:37;;;;;;;0.2;0.2;;;;;;;;;;;;;
2024/03/13 14:35:03;;;;;;;0.1;0.1;;;;;;;;;;;;;
2024/03/13 14:37:31;;;;;;;0.2;0.2;;;;;;;;;;;;;
2024/03/13 14:39:56;;;;;;;0.2;0.2;;;;;;;;;;;;;
2024/03/13 14:42:19;;;;;;;0.2;0.2;;;;;;;;;;;;;
2024/03/13 14:44:44;;;;;;;0.2;0.2;;;;;;;;;;;;;
2024/03/13 14:47:09;;;;;;;0.1;0.1;;;;;;;;;;;;;
2024/03/13 14:49:35;;;;;;;0.2;0.2;;;;;;;;;;;;;
2024/03/13 14:51:59;;;;;;;0.1;0.1;;;;;;;;;;;;;
2024/03/13 14:54:26;;;;;;;0.1;0.1;;;;;;;;;;;;;
2024/03/13 14:56:53;;;;;;;0.1;0.1;;;;;;;;;;;;;
2024/03/13 14:59:15;;;;;;;0.1;0.1;;;;;;;;;;;;;
2024/03/13 15:01:41;;;;;;;0.1;0.1;;;;;;;;;;;;;
2024/03/13 15:04:05;;;;;;;0.2;0.2;;;;;;;;;;;;;
2024/03/13 15:06:30;;;;;;;0.1;0.1;;;;;;;;;;;;;
2024/03/13 15:08:55;;;;;;;0.1;0.1;;;;;;;;;;;;;
2024/03/13 15:11:23;;;;;;;0.1;0.1;;;;;;;;;;;;;
2024/03/13 15:13:47;;;;;;;0.1;0.1;;;;;;;;;;;;;
2024/03/13 15:16:10;;;;;;;0.1;0.1;;;;;;;;;;;;;
2024/03/13 15:18:35;;;;;;;0.1;0.1;;;;;;;;;;;;;
2024/03/13 15:21:00;;;;;;;0.2;0.2;;;;;;;;;;;;;
2024/03/13 15:23:26;;;;;;;0.1;0.1;;;;;;;;;;;;;
2024/03/13 15:25:51;;;;;;;0.1;0.1;;;;;;;;;;;;;
2024/03/13 15:28:16;;;;;;;0.1;0.1;;;;;;;;;;;;;
2024/03/13 15:30:41;;;;;;;2.3;0.5;;;;;;;;;;;;;
2024/03/13 15:33:07;;;;;;;0.1;0.1;;;;;;;;;;;;;
2024/03/13 15:35:31;;;;;;;0.3;0.3;;;;;;;;;;;;;
2024/03/13 15:37:56;;;;;;;0.1;0.1;;;;;;;;;;;;;
2024/03/13 15:40:21;;;;;;;0.2;0.2;;;;;;;;;;;;;
2024/03/13 15:42:46;;;;;;;0.3;0.2;;;;;;;;;;;;;
2024/03/13 15:45:12;;;;;;;0.2;0.2;;;;;;;;;;;;;
2024/03/13 15:47:37;;;;;;;0.2;0.2;;;;;;;;;;;;;
2024/03/13 15:50:02;;;;;;;1.1;0.3;;;;;;;;;;;;;
2024/03/13 15:52:27;;;;;;;0.4;0.2;;;;;;;;;;;;;
2024/03/13 15:54:52;;;;;;;0.4;0.4;;;;;;;;;;;;;
2024/03/13 15:57:17;;;;;;;0.1;0.1;;;;;;;;;;;;;
2024/03/13 15:59:43;;;;;;;1;0.3;;;;;;;;;;;;;
2024/03/13 16:02:08;;;;;;;0.2;0.2;;;;;;;;;;;;;
2024/03/13 16:04:32;;;;;;;1.5;0.2;;;;;;;;;;;;;
2024/03/13 16:06:57;;;;;;;0.2;0.2;;;;;;;;;;;;;
2024/03/13 16:09:23;;;;;;;0.4;0.2;;;;;;;;;;;;;
2024/03/13 16:11:48;;;;;;;0.2;0.2;;;;;;;;;;;;;
2024/03/13 16:14:13;;;;;;;0.2;0.2;;;;;;;;;;;;;
2024/03/13 16:16:38;;;;;;;0.6;0.3;;;;;;;;;;;;;
2024/03/13 16:19:05;;;;;;;0.5;0.4;;;;;;;;;;;;;
2024/03/13 16:21:28;;;;;;;1.1;0.4;;;;;;;;;;;;;
2024/03/13 16:23:54;;;;;;;0.3;0.3;;;;;;;;;;;;;
2024/03/13 16:26:19;;;;;;;0.7;0.6;;;;;;;;;;;;;
2024/03/13 16:28:44;;;;;;;0.5;0.4;;;;;;;;;;;;;
2024/03/13 16:31:09;;;;;;;0.9;0.9;;;;;;;;;;;;;
2024/03/13 16:33:34;;;;;;;1;1;;;;;;;;;;;;;
2024/03/13 16:35:59;;;;;;;0.8;0.8;;;;;;;;;;;;;
2024/03/13 16:38:25;;;;;;;2.2;1.3;;;;;;;;;;;;;
2024/03/13 16:40:50;;;;;;;2;1.7;;;;;;;;;;;;;
2024/03/13 16:43:15;;;;;;;1.4;1.1;;;;;;;;;;;;;
2024/03/13 16:45:40;;;;;;;1.6;1.5;;;;;;;;;;;;;
2024/03/13 16:48:05;;;;;;;1;1;;;;;;;;;;;;;
2024/03/13 16:50:30;;;;;;;1.4;1.1;;;;;;;;;;;;;
2024/03/13 16:52:55;;;;;;;0.3;0.3;;;;;;;;;;;;;
2024/03/13 16:55:20;;;;;;;0.5;0.5;;;;;;;;;;;;;
2024/03/13 16:57:47;;;;;;;0.4;0.4;;;;;;;;;;;;;
2024/03/13 17:00:14;;;;;;;0.5;0.5;;;;;;;;;;;;;
2024/03/13 17:02:36;;;;;;;0.4;0.4;;;;;;;;;;;;;
2024/03/13 17:05:01;;;;;;;1.3;1.1;;;;;;;;;;;;;
2024/03/13 17:07:26;;;;;;;1.7;1;;;;;;;;;;;;;
2024/03/13 17:09:51;;;;;;;2.2;1.4;;;;;;;;;;;;;
2024/03/13 17:12:16;;;;;;;2.4;1.6;;;;;;;;;;;;;
2024/03/13 17:14:41;;;;;;;1.7;1.5;;;;;;;;;;;;;
2024/03/13 17:17:07;;;;;;;2.1;1.6;;;;;;;;;;;;;
2024/03/13 17:19:32;;;;;;;4.7;2.7;;;;;;;;;;;;;
2024/03/13 17:21:57;;;;;;;3.5;2.4;;;;;;;;;;;;;
2024/03/13 17:24:23;;;;;;;3.1;2.1;;;;;;;;;;;;;
2024/03/13 17:26:47;;;;;;;3.3;2.2;;;;;;;;;;;;;
2024/03/13 17:29:13;;;;;;;2.8;2.1;;;;;;;;;;;;;
2024/03/13 17:31:37;;;;;;;2.1;1.5;;;;;;;;;;;;;
2024/03/13 17:34:04;;;;;;;3;1.5;;;;;;;;;;;;;
2024/03/13 17:36:28;;;;;;;1.3;1.1;;;;;;;;;;;;;
2024/03/13 17:38:53;;;;;;;2.3;1.5;;;;;;;;;;;;;
2024/03/13 17:41:18;;;;;;;2.8;1.3;;;;;;;;;;;;;
2024/03/13 17:43:46;;;;;;;2.8;1.8;;;;;;;;;;;;;
2024/03/13 17:46:09;;;;;;;2.9;2;;;;;;;;;;;;;
2024/03/13 17:48:34;;;;;;;2.7;2.1;;;;;;;;;;;;;
2024/03/13 17:50:58;;;;;;;2.5;1.6;;;;;;;;;;;;;
2024/03/13 17:53:24;;;;;;;2;1.6;;;;;;;;;;;;;
2024/03/13 17:55:48;;;;;;;4.5;2.4;;;;;;;;;;;;;
2024/03/13 17:58:14;;;;;;;2.7;1.8;;;;;;;;;;;;;
2024/03/13 18:00:39;;;;;;;3.7;1.9;;;;;;;;;;;;;
2024/03/13 18:03:04;;;;;;;2.4;2;;;;;;;;;;;;;
2024/03/13 18:05:29;;;;;;;2;1.8;;;;;;;;;;;;;
2024/03/13 18:07:56;;;;;;;2.4;2.1;;;;;;;;;;;;;
2024/03/13 18:10:23;;;;;;;4;3.6;;;;;;;;;;;;;
2024/03/13 18:12:46;;;;;;;8.8;7.9;;;;;;;;;;;;;
2024/03/13 18:15:10;;;;;;;2.9;2.6;;;;;;;;;;;;;
2024/03/13 18:17:35;;;;;;;4.3;2.3;;;;;;;;;;;;;
2024/03/13 18:20:00;;;;;;;2.4;1.6;;;;;;;;;;;;;
2024/03/13 18:22:25;;;;;;;2.7;2.1;;;;;;;;;;;;;
2024/03/13 18:24:52;;;;;;;2.7;1.6;;;;;;;;;;;;;
2024/03/13 18:27:15;;;;;;;2.4;1.8;;;;;;;;;;;;;
2024/03/13 18:29:41;;;;;;;2.9;1.8;;;;;;;;;;;;;
2024/03/13 18:32:05;;;;;;;2.4;1.7;;;;;;;;;;;;;
2024/03/13 18:34:30;;;;;;;8.4;5;;;;;;;;;;;;;
2024/03/13 18:36:56;;;;;;;17.9;10.2;;;;;;;;;;;;;
2024/03/13 18:39:21;;;;;;;13.7;8.5;;;;;;;;;;;;;
2024/03/13 18:41:46;;;;;;;26.2;15.5;;;;;;;;;;;;;
2024/03/13 18:44:11;;;;;;;6.4;4;;;;;;;;;;;;;
2024/03/13 18:46:36;;;;;;;3.6;2.6;;;;;;;;;;;;;
2024/03/13 18:49:01;;;;;;;4.4;3.3;;;;;;;;;;;;;
2024/03/13 18:51:26;;;;;;;2.4;1.9;;;;;;;;;;;;;
2024/03/13 18:53:52;;;;;;;2.2;1.6;;;;;;;;;;;;;
2024/03/13 18:56:17;;;;;;;1.7;1.1;;;;;;;;;;;;;
2024/03/13 18:58:42;;;;;;;3.6;1.9;;;;;;;;;;;;;
2024/03/13 19:01:07;;;;;;;1.5;1.4;;;;;;;;;;;;;
2024/03/13 19:03:33;;;;;;;2.1;1.7;;;;;;;;;;;;;
2024/03/13 19:05:57;;;;;;;2.4;1.4;;;;;;;;;;;;;
2024/03/13 19:08:22;;;;;;;2;1.5;;;;;;;;;;;;;
2024/03/13 19:10:48;;;;;;;2.5;2.3;;;;;;;;;;;;;
2024/03/13 19:13:12;;;;;;;2;1.8;;;;;;;;;;;;;
2024/03/13 19:15:37;;;;;;;4;3.3;;;;;;;;;;;;;
2024/03/13 19:18:02;;;;;;;2.2;2;;;;;;;;;;;;;
2024/03/13 19:20:28;;;;;;;3.2;2.3;;;;;;;;;;;;;
2024/03/13 19:22:52;;;;;;;2.1;1.9;;;;;;;;;;;;;
2024/03/13 19:25:17;;;;;;;2.7;2.2;;;;;;;;;;;;;
2024/03/13 19:27:43;;;;;;;3.6;2.9;;;;;;;;;;;;;
2024/03/13 19:30:08;;;;;;;7.1;5.4;;;;;;;;;;;;;
2024/03/13 19:32:33;;;;;;;5.3;4;;;;;;;;;;;;;
2024/03/13 19:34:58;;;;;;;1.9;1.8;;;;;;;;;;;;;
2024/03/13 19:37:23;;;;;;;2.4;2.2;;;;;;;;;;;;;
2024/03/13 19:39:48;;;;;;;4;3.6;;;;;;;;;;;;;
2024/03/13 19:42:13;;;;;;;4.8;3.6;;;;;;;;;;;;;
2024/03/13 19:44:38;;;;;;;5.3;4.2;;;;;;;;;;;;;
2024/03/13 19:47:04;;;;;;;5.8;4.3;;;;;;;;;;;;;
2024/03/13 19:49:29;;;;;;;9.4;6.6;;;;;;;;;;;;;
2024/03/13 19:51:54;;;;;;;5.8;4.2;;;;;;;;;;;;;
2024/03/13 19:54:19;;;;;;;6;3.8;;;;;;;;;;;;;
2024/03/13 19:56:44;;;;;;;4.1;2.3;;;;;;;;;;;;;
2024/03/13 19:59:11;;;;;;;3.4;2.4;;;;;;;;;;;;;
2024/03/13 20:01:35;;;;;;;3.6;2.7;;;;;;;;;;;;;
2024/03/13 20:04:00;;;;;;;3.6;3;;;;;;;;;;;;;
2024/03/13 20:06:25;;;;;;;4.2;3.2;;;;;;;;;;;;;
2024/03/13 20:08:50;;;;;;;3.3;2.5;;;;;;;;;;;;;
2024/03/13 20:11:15;;;;;;;2.5;2.3;;;;;;;;;;;;;
2024/03/13 20:13:41;;;;;;;3.2;2.2;;;;;;;;;;;;;
2024/03/13 20:16:06;;;;;;;3.1;2.5;;;;;;;;;;;;;
2024/03/13 20:18:30;;;;;;;3.2;2.6;;;;;;;;;;;;;
2024/03/13 20:20:56;;;;;;;3.2;2.4;;;;;;;;;;;;;
2024/03/13 20:23:20;;;;;;;3.6;2.2;;;;;;;;;;;;;
2024/03/13 20:25:46;;;;;;;3.4;2.3;;;;;;;;;;;;;
2024/03/13 20:28:13;;;;;;;2.8;2.4;;;;;;;;;;;;;
2024/03/13 20:30:36;;;;;;;2.9;2.6;;;;;;;;;;;;;
2024/03/13 20:33:01;;;;;;;4.9;3.2;;;;;;;;;;;;;
2024/03/13 20:35:26;;;;;;;10;5.1;;;;;;;;;;;;;
2024/03/13 20:37:51;;;;;;;6.5;4.1;;;;;;;;;;;;;
2024/03/13 20:40:16;;;;;;;8.7;4.9;;;;;;;;;;;;;
2024/03/13 20:42:41;;;;;;;5.4;4;;;;;;;;;;;;;
2024/03/13 20:45:07;;;;;;;7.4;4.7;;;;;;;;;;;;;
2024/03/13 20:47:31;;;;;;;6.7;4.1;;;;;;;;;;;;;
2024/03/13 20:49:56;;;;;;;5.3;3.8;;;;;;;;;;;;;